createdAt,value
2022-12-18T00:01:37.094Z,-0.2
2022-12-18T00:06:39.170Z,-0.2
2022-12-18T00:11:42.354Z,-0.2
2022-12-18T00:16:44.652Z,-0.2
2022-12-18T00:21:46.807Z,-0.2
2022-12-18T00:26:48.749Z,-0.4
2022-12-18T00:31:51.161Z,-0.4
2022-12-18T00:36:53.311Z,-0.4
2022-12-18T00:41:55.325Z,-0.4
2022-12-18T00:46:57.471Z,-0.3
2022-12-18T00:51:59.555Z,-0.3
2022-12-18T00:57:01.705Z,-0.3
2022-12-18T01:02:04.355Z,-0.3
2022-12-18T01:07:06.684Z,-0.3
2022-12-18T01:12:08.691Z,-0.4
2022-12-18T01:17:10.752Z,-0.3
2022-12-18T01:22:12.724Z,-0.1
2022-12-18T01:27:14.782Z,0
2022-12-18T01:32:16.900Z,0
2022-12-18T01:37:18.966Z,0.1
2022-12-18T01:42:21.006Z,0.1
2022-12-18T01:47:22.936Z,0
2022-12-18T01:52:25.059Z,0
2022-12-18T01:57:27.155Z,0
2022-12-18T02:02:30.004Z,0
2022-12-18T02:07:32.258Z,-0.1
2022-12-18T02:12:34.875Z,0
2022-12-18T02:17:37.684Z,-0.1
2022-12-18T02:22:40.370Z,-0.1
2022-12-18T02:27:42.366Z,-0.2
2022-12-18T02:32:44.694Z,-0.2
2022-12-18T02:37:46.712Z,-0.2
2022-12-18T02:42:49.376Z,-0.2
2022-12-18T02:47:51.909Z,-0.2
2022-12-18T02:52:54.199Z,-0.3
2022-12-18T02:57:56.214Z,-0.2
2022-12-18T03:02:59.455Z,-0.2
2022-12-18T03:08:01.750Z,-0.2
2022-12-18T03:13:03.827Z,-0.3
2022-12-18T03:18:06.397Z,-0.4
2022-12-18T03:23:08.393Z,-0.4
2022-12-18T03:28:10.484Z,-0.4
2022-12-18T03:33:12.516Z,-0.3
2022-12-18T03:38:14.451Z,-0.3
2022-12-18T03:43:17.826Z,-0.2
2022-12-18T03:48:20.304Z,-0.2
2022-12-18T03:53:22.597Z,-0.2
2022-12-18T03:58:24.577Z,-0.2
2022-12-18T04:03:28.651Z,-0.4
2022-12-18T04:08:30.688Z,-0.4
2022-12-18T04:13:33.790Z,-0.4
2022-12-18T04:18:36.008Z,-0.5
2022-12-18T04:23:39.321Z,-0.6
2022-12-18T04:28:42.018Z,-0.6
2022-12-18T04:33:44.779Z,-0.8
2022-12-18T04:38:47.022Z,-0.8
2022-12-18T04:43:49.083Z,-0.9
2022-12-18T04:48:51.003Z,-1
2022-12-18T04:53:53.054Z,-1.1
2022-12-18T04:58:55.120Z,-1.2
2022-12-18T05:03:57.585Z,-1.5
2022-12-18T05:08:59.894Z,-1.5
2022-12-18T05:14:04.728Z,-1.5
2022-12-18T05:19:06.828Z,-1.6
2022-12-18T05:24:09.197Z,-1.7
2022-12-18T05:29:11.835Z,-1.9
2022-12-18T05:34:15.625Z,-2.1
2022-12-18T05:39:18.117Z,-2.3
2022-12-18T05:44:20.641Z,-2.4
2022-12-18T05:49:22.636Z,-2.4
2022-12-18T05:54:24.657Z,-2.5
2022-12-18T05:59:26.735Z,-2.5
2022-12-18T06:04:28.938Z,-2.5
2022-12-18T06:09:30.906Z,-2.5
2022-12-18T06:14:32.973Z,-2.5
2022-12-18T06:19:34.923Z,-2.6
2022-12-18T06:24:36.856Z,-2.6
2022-12-18T06:29:38.923Z,-2.7
2022-12-18T06:34:41.161Z,-2.7
2022-12-18T06:39:43.084Z,-2.7
2022-12-18T06:44:45.455Z,-2.6
2022-12-18T06:49:47.467Z,-2.4
2022-12-18T06:54:50.825Z,-0.3
2022-12-18T06:59:53.212Z,0.9
2022-12-18T07:04:55.438Z,0.9
2022-12-18T07:09:58.000Z,3.5
2022-12-18T07:15:00.540Z,3.5
2022-12-18T07:20:02.762Z,5
2022-12-18T07:25:04.726Z,5.6
2022-12-18T07:30:06.684Z,6.6
2022-12-18T07:35:08.604Z,7.3
2022-12-18T07:40:11.088Z,8.7
2022-12-18T07:45:13.262Z,8.7
2022-12-18T07:50:15.408Z,9.5
2022-12-18T07:55:17.510Z,10.1
2022-12-18T08:00:19.607Z,12.3
2022-12-18T08:05:23.433Z,11.5
2022-12-18T08:15:26.926Z,16.1
2022-12-18T08:20:29.046Z,16.1
2022-12-18T08:25:31.197Z,16.3
2022-12-18T08:30:34.177Z,17.4
2022-12-18T08:35:47.060Z,17.8
2022-12-18T08:40:39.217Z,17.8
2022-12-18T08:45:41.360Z,17.7
2022-12-18T08:50:44.079Z,18.9
2022-12-18T09:05:53.265Z,20.1
2022-12-18T09:10:55.292Z,18.8
2022-12-18T09:15:57.495Z,19.2
2022-12-18T09:22:11.722Z,18.7
2022-12-18T09:27:13.902Z,18.9
2022-12-18T09:32:23.686Z,20.4
2022-12-18T09:37:25.778Z,20.4
2022-12-18T09:42:27.700Z,20.8
2022-12-18T09:47:30.091Z,21
2022-12-18T09:52:32.071Z,21
2022-12-18T09:57:34.187Z,19.2
2022-12-18T10:02:36.748Z,22.5
2022-12-18T10:07:38.982Z,22.4
2022-12-18T10:12:40.972Z,22
2022-12-18T10:17:43.354Z,15.6
2022-12-18T10:22:45.393Z,15.5
2022-12-18T10:27:47.361Z,15.1
2022-12-18T10:32:49.637Z,14.2
2022-12-18T10:37:52.099Z,14.4
2022-12-18T10:42:54.380Z,14.3
2022-12-18T10:47:56.362Z,16.5
2022-12-18T10:52:59.198Z,20.1
2022-12-18T10:58:01.490Z,20
2022-12-18T11:03:04.348Z,21.8
2022-12-18T11:08:07.352Z,16.5
2022-12-18T11:13:09.311Z,16.3
2022-12-18T11:18:11.357Z,15
2022-12-18T11:23:13.760Z,17.6
2022-12-18T11:28:15.679Z,17.5
2022-12-18T11:33:17.550Z,17.2
2022-12-18T11:38:19.567Z,16.6
2022-12-18T11:43:22.166Z,15.5
2022-12-18T11:48:24.042Z,15.4
2022-12-18T11:58:32.974Z,16.3
2022-12-18T12:03:35.040Z,16.3
2022-12-18T12:08:37.027Z,16.6
2022-12-18T12:13:40.221Z,16
2022-12-18T12:18:44.196Z,16
2022-12-18T12:23:47.270Z,15.9
2022-12-18T12:28:49.365Z,15.9
2022-12-18T12:33:51.355Z,14.5
2022-12-18T12:38:54.436Z,12.5
2022-12-18T12:43:57.579Z,14.5
2022-12-18T12:49:00.568Z,15.2
2022-12-18T12:54:04.096Z,14.8
2022-12-18T12:59:08.146Z,14.8
2022-12-18T13:04:11.478Z,12.4
2022-12-18T13:09:15.629Z,13.7
2022-12-18T13:14:19.145Z,13.5
2022-12-18T13:19:21.924Z,13.5
2022-12-18T13:24:24.392Z,12
2022-12-18T13:29:28.932Z,11.8
2022-12-18T13:34:34.134Z,10.7
2022-12-18T13:39:38.327Z,9.9
2022-12-18T13:49:43.653Z,7.7
2022-12-18T13:59:48.253Z,5.5
2022-12-18T14:04:50.548Z,4.7
2022-12-18T14:10:01.858Z,4.3
2022-12-18T14:14:57.462Z,4.1
2022-12-18T14:20:00.652Z,4.1
2022-12-18T14:25:02.622Z,3.8
2022-12-18T14:30:08.869Z,3.2
2022-12-18T14:35:12.408Z,3.2
2022-12-18T14:40:14.883Z,2.8
2022-12-18T14:45:17.538Z,2.6
2022-12-18T14:50:20.562Z,2.6
2022-12-18T14:55:23.973Z,2.4
2022-12-18T15:00:26.094Z,2.3
2022-12-18T15:05:28.232Z,2.2
2022-12-18T15:10:30.491Z,2.1
2022-12-18T15:15:32.511Z,2
2022-12-18T15:20:34.705Z,1.9
2022-12-18T15:25:36.911Z,1.7
2022-12-18T15:30:38.965Z,1.7
2022-12-18T15:35:48.456Z,1.5
2022-12-18T15:40:50.664Z,1.5
2022-12-18T15:45:53.010Z,1.4
2022-12-18T15:50:55.255Z,1.3
2022-12-18T15:56:02.767Z,1.3
2022-12-18T16:01:05.935Z,1.2
2022-12-18T16:06:08.735Z,1.2
2022-12-18T16:11:11.086Z,1.1
2022-12-18T16:16:13.655Z,1.1
2022-12-18T16:21:16.062Z,1.1
2022-12-18T16:26:42.405Z,1.1
2022-12-18T16:36:33.606Z,1
2022-12-18T16:41:35.644Z,0.9
2022-12-18T16:46:37.866Z,0.9
2022-12-18T16:51:40.343Z,0.8
2022-12-18T16:56:42.559Z,0.8
2022-12-18T17:01:45.420Z,0.7
2022-12-18T17:06:48.082Z,0.6
2022-12-18T17:11:50.168Z,0.6
2022-12-18T17:17:24.688Z,0.6
2022-12-18T17:21:56.793Z,0.5
2022-12-18T17:26:58.852Z,0.6
2022-12-18T17:32:02.313Z,0.5
2022-12-18T17:37:04.455Z,0.4
2022-12-18T17:42:14.062Z,0.4
2022-12-18T17:47:07.643Z,0.4
2022-12-18T17:52:09.829Z,0.5
2022-12-18T17:57:12.498Z,0.3
2022-12-18T18:02:16.864Z,0.3
2022-12-18T18:07:21.173Z,0.3
2022-12-18T18:12:23.738Z,0.3
2022-12-18T18:17:26.035Z,0.3
2022-12-18T18:22:28.506Z,0.2
2022-12-18T18:27:39.972Z,0.2
2022-12-18T18:32:32.095Z,0.2
2022-12-18T18:37:35.768Z,0.1
2022-12-18T18:42:37.784Z,0.1
2022-12-18T18:47:39.948Z,0
2022-12-18T18:52:45.616Z,-0.1
2022-12-18T18:57:50.807Z,-0.1
2022-12-18T19:03:01.929Z,-0.2
2022-12-18T19:07:54.322Z,-0.2
2022-12-18T19:12:56.318Z,-0.2
2022-12-18T19:17:58.986Z,-0.3
2022-12-18T19:23:01.730Z,-0.3
2022-12-18T19:28:09.489Z,-0.4
2022-12-18T19:33:45.011Z,-0.5
2022-12-18T19:38:17.390Z,-0.5
2022-12-18T19:43:19.454Z,-0.6
2022-12-18T19:48:22.779Z,-0.5
2022-12-18T19:53:25.095Z,-0.6
2022-12-18T19:58:27.046Z,-0.6
2022-12-18T20:03:34.476Z,-0.7
2022-12-18T20:08:36.916Z,-0.7
2022-12-18T20:13:41.247Z,-0.8
2022-12-18T20:18:47.441Z,-0.8
2022-12-18T20:23:55.206Z,-1
2022-12-18T20:28:58.913Z,-1.2
2022-12-18T20:34:10.494Z,-1.4
2022-12-18T20:39:12.167Z,-1.5
2022-12-18T20:44:25.485Z,-1.4
2022-12-18T20:49:17.793Z,-1.5
2022-12-18T20:54:20.066Z,-1.5
2022-12-18T20:59:22.188Z,-1.6
2022-12-18T21:04:33.128Z,-1.7
2022-12-18T21:09:25.741Z,-1.7
2022-12-18T21:14:27.855Z,-1.6
2022-12-18T21:19:30.821Z,-1.6
2022-12-18T21:24:35.180Z,-1.6
2022-12-18T21:29:37.253Z,-1.6
2022-12-18T21:34:46.172Z,-2.2
2022-12-18T21:39:40.272Z,-2.2
2022-12-18T21:44:43.962Z,-2.5
2022-12-18T21:49:46.226Z,-2.5
2022-12-18T22:04:49.838Z,-3
2022-12-18T22:09:52.152Z,-2.5
2022-12-18T22:14:54.298Z,-2.5
2022-12-18T22:19:56.827Z,-2.2
2022-12-18T22:24:59.002Z,-2.2
2022-12-18T22:30:01.315Z,-2.1
2022-12-18T22:35:16.092Z,-2.1
2022-12-18T22:40:09.900Z,-2.1
2022-12-18T22:45:15.180Z,-2.1
2022-12-18T22:50:17.157Z,-2.1
2022-12-18T22:55:19.120Z,-2
2022-12-18T23:00:26.272Z,-2
2022-12-18T23:05:21.585Z,-2
2022-12-18T23:10:23.514Z,-2
2022-12-18T23:15:30.943Z,-2.1
2022-12-18T23:20:35.265Z,-2.2
2022-12-18T23:25:40.068Z,-2.3
2022-12-18T23:30:42.148Z,-2.4
2022-12-18T23:35:44.403Z,-2.6
2022-12-18T23:40:49.949Z,-2.8
2022-12-18T23:45:57.008Z,-2.7
2022-12-18T23:50:48.941Z,-2.8
2022-12-18T23:55:53.516Z,-2.7
